logo
Search for airport 
image banner adimage banner adimage banner ad
image banner ad

YBUI - Burnie

Located in Park Grove, Australia

ICAO - YBUI, IATA -

Data provided by Airmate  

General information

Coordinates: S41°2'58" E145°52'48"
Elevation is 311 feet MSL.
Magnetic variation is 13° East
View others Airports in Tasmania

Operational data

Special qualification required
Current time UTC:
Current local time:
Weather at : - ( 0 km )
METAR: LWSK 131520Z 36008KT 9999 SCT049 25/11 Q1022 NOSIG
View NOTAMs / SUP AIP / TFR affecting this airport [VIEW]
Communications frequencies: [VIEW]

Runways:

Airport contact information

Address: Park Grove Australia

Satellite view of YBUI